METAR AND TAF INFORMATION
METAR FOR EGDY
ADDS - METARS form results

(0620 UTC 17 July 2019)
Data provider http://aviationweather.gov/metar/data/
 
METAR text: EGDY 170550Z 00000KT 8000 BR FEW018 SCT250 11/11 Q1016 NOSIG RMK BLU BLU
Conditions at: EGDY (YEOVILTON (NAVY), GB) observed 0550 UTC 17 July 2019
Temperature: 11.0°C (52°F)
Dewpoint: 11.0°C (52°F) [RH = 100%]
Pressure (altimeter): 30.00 inches Hg (1016.0 mb)
Winds: calm
Visibility: 5 miles ( 8 km)
Ceiling: at least 12,000 feet AGL
Clouds: few clouds at 1800 feet AGL
scattered clouds at 25000 feet AGL
Weather: BR  (mist)

METAR text: EGDY 170525Z 16001KT 8000 MIFG BR FEW015 SCT250 10/10 Q1015 NOSIG RMK BLU BLU
Conditions at: EGDY (YEOVILTON (NAVY), GB) observed 0525 UTC 17 July 2019
Temperature: 10.0°C (50°F)
Dewpoint: 10.0°C (50°F) [RH = 100%]
Pressure (altimeter): 29.97 inches Hg (1015.0 mb)
Winds: from the SSE (160 degrees) at 1 MPH (1 knots; 0.5 m/s)
Visibility: 5 miles ( 8 km)
Ceiling: at least 12,000 feet AGL
Clouds: few clouds at 1500 feet AGL
scattered clouds at 25000 feet AGL
Weather: MIFG BR  (shallow fog, mist)

Forecast for: EGDY (YEOVILTON (NAVY), GB)
Text: TAF EGDY 170449Z 1706/1715 VRB03KT CAVOK
Forecast period: 0600 to 1000 UTC 17 July 2019
Forecast type: FROM: standard forecast or significant change
Winds: variable direction winds at 3 MPH (3 knots; 1.5 m/s)
Visibility: 6 or more miles 10+ km)
Ceiling: unknown
Clouds: missing
Weather: NSW  (no significant weather)
Text: BECMG 1710/1712 24005G15KT SCT035
Forecast period: 1000 to 1500 UTC 17 July 2019
Forecast type: BECOMING: Conditions expected to become as follows by 1200 UTC 17 July 2019
Winds: from the WSW (240 degrees) at 6 MPH (5 knots; 2.6 m/s)
gusting to 17 MPH (15 knots; 7.7 m/s)
Visibility: 6 or more miles 10+ km)
Ceiling: at least 12,000 feet AGL
Clouds: scattered clouds at 3500 feet AGL
Weather: NSW  (no significant weather)

 AIRPORT MAP

 RUNWAY INFORMATION
Runway 04 Runway length 4797 ft Runway width 151 ft
Runway elevation 75 ft Runway displaced threshold 0 ft Runway heading 37
Runway 22 Runway length 4797 ft Runway width 151 ft
Runway elevation 69 ft Runway displaced threshold 0 ft Runway heading 217
Runway 09 Runway length 7580 ft Runway width 151 ft
Runway elevation 53 ft Runway displaced threshold 0 ft Runway heading 83
Runway 27 Runway length 7580 ft Runway width 151 ft
Runway elevation 69 ft Runway displaced threshold 76 ft Runway heading 263

 AIRPORT FREQUENCIES
Type APP Name RADAR Frequency 127.35 MHZ
Type ATIS Name ATIS Frequency 28.392 MHZ
Type GND Name GND Frequency 26.862 MHZ
Type OPS Name OPS Frequency 673.6 MHZ
Type TWR Name TWR Frequency 122.1 MHZ

 AIRPORT NEAR NAVIGATION AIDS
Type TACAN Name Yeovilton Frequency 111000 KHZ